Accueil
METAR-TAF:

METAR-TAF

Aéroports :

Alger, Algérie

Aéroport d'Alger - Houari Boumédiène

latitude: 36-43N, longitude: 003-15E, altitude: 25 m

Observation

Le bulletin a été fait il y a 18 minutes, à 13:30 UTC
Vent 10 kt de nord/nord-ouest
Température 24°C
Humidité 57%
Pression 1023 hPa
Visibilité 10 km ou plus
Quelques nuages à une hauteur de 2600 ft

METAR: DAAG 221330Z 34010KT 9999 FEW026 24/15 Q1023

Heure: 14:48 (13:48 UTC)

Prévision

Le bulletin a été fait il y a 2 heures et 48 minutes, à 11:00 UTC
Prévision valable du 22 à 12 UTC au 23 à 12 UTC
Vent 6 kt de nord/nord-ouest
Visibilité 10 km ou plus
Quelques nuages à une hauteur de 2600 ft
Probabilité 40% :
Temporairement
du 23 à 04 UTC au 23 à 12 UTC
Nuages épars à une hauteur de 2300 ft, Cumulus congestus.
Quelques nuages à une hauteur de 2600 ft, Cumulonimbus.

TAF: DAAG 221100Z 2212/2312 34006KT 9999 FEW026 PROB40 TEMPO 2304/2312 SCT023TCU FEW026CB

Observations et prévisions météorologiques de plus de 4000 aéroports (messages METAR et TAF).

Les stations disponibles sont représentées par des disques jaunes et rouges sur la carte.

Passer la souris dessus pour voir le nom de la station.

Cliquer dessus pour voir les observations et prévisions météorologiques.

Pour changer de carte: cliquez sur les boutons verts avec une croix noire pour zoomer, sur le bouton vert avec un tiret pour effectuer un zoom arrière, ou sur les flèches vertes pour les cartes adjacentes.


METAR-TAF: